sensor_id;sensor_type;location;lat;lon;timestamp;P1;durP1;ratioP1;P2;durP2;ratioP2
75900;SDS011;64577;50.594;5.570;2022-11-20T05:22:41;8.20;;;5.22;;
75900;SDS011;64577;50.594;5.570;2022-11-20T05:25:07;8.20;;;5.30;;
75900;SDS011;64577;50.594;5.570;2022-11-20T05:27:32;10.18;;;5.93;;
75900;SDS011;64577;50.594;5.570;2022-11-20T05:29:57;7.80;;;5.30;;
75900;SDS011;64577;50.594;5.570;2022-11-20T05:32:23;8.70;;;5.28;;
75900;SDS011;64577;50.594;5.570;2022-11-20T05:34:50;8.43;;;5.63;;
75900;SDS011;64577;50.594;5.570;2022-11-20T05:37:16;7.38;;;5.03;;
75900;SDS011;64577;50.594;5.570;2022-11-20T05:39:41;8.02;;;5.30;;
75900;SDS011;64577;50.594;5.570;2022-11-20T05:42:06;8.00;;;5.03;;
75900;SDS011;64577;50.594;5.570;2022-11-20T05:44:50;9.20;;;5.40;;
75900;SDS011;64577;50.594;5.570;2022-11-20T05:47:15;8.27;;;5.15;;
75900;SDS011;64577;50.594;5.570;2022-11-20T05:49:41;8.18;;;5.53;;
75900;SDS011;64577;50.594;5.570;2022-11-20T05:52:06;7.50;;;4.85;;
75900;SDS011;64577;50.594;5.570;2022-11-20T05:54:31;8.50;;;5.65;;
75900;SDS011;64577;50.594;5.570;2022-11-20T05:56:57;8.27;;;5.90;;
75900;SDS011;64577;50.594;5.570;2022-11-20T05:59:22;8.10;;;5.20;;
75900;SDS011;64577;50.594;5.570;2022-11-20T06:01:47;8.23;;;5.43;;
75900;SDS011;64577;50.594;5.570;2022-11-20T06:04:13;8.82;;;5.57;;
75900;SDS011;64577;50.594;5.570;2022-11-20T06:06:38;7.72;;;5.00;;
75900;SDS011;64577;50.594;5.570;2022-11-20T06:09:03;7.63;;;4.88;;
75900;SDS011;64577;50.594;5.570;2022-11-20T06:11:29;7.82;;;5.00;;
75900;SDS011;64577;50.594;5.570;2022-11-20T06:13:54;8.02;;;5.13;;
75900;SDS011;64577;50.594;5.570;2022-11-20T06:16:19;8.65;;;4.85;;
75900;SDS011;64577;50.594;5.570;2022-11-20T06:18:46;8.00;;;4.97;;
75900;SDS011;64577;50.594;5.570;2022-11-20T06:21:13;7.57;;;5.03;;
75900;SDS011;64577;50.594;5.570;2022-11-20T06:23:43;8.25;;;4.70;;
75900;SDS011;64577;50.594;5.570;2022-11-20T06:26:14;7.03;;;4.78;;
75900;SDS011;64577;50.594;5.570;2022-11-20T06:31:06;7.53;;;4.72;;
75900;SDS011;64577;50.594;5.570;2022-11-20T06:33:32;7.70;;;4.80;;
75900;SDS011;64577;50.594;5.570;2022-11-20T06:35:58;8.65;;;5.13;;
75900;SDS011;64577;50.594;5.570;2022-11-20T06:38:25;8.52;;;5.30;;
75900;SDS011;64577;50.594;5.570;2022-11-20T06:40:50;7.05;;;4.45;;
75900;SDS011;64577;50.594;5.570;2022-11-20T06:43:16;8.43;;;5.13;;
75900;SDS011;64577;50.594;5.570;2022-11-20T06:45:41;8.07;;;5.05;;
75900;SDS011;64577;50.594;5.570;2022-11-20T06:48:06;8.18;;;5.13;;
75900;SDS011;64577;50.594;5.570;2022-11-20T06:50:32;8.27;;;5.00;;
75900;SDS011;64577;50.594;5.570;2022-11-20T06:53:00;9.27;;;5.18;;
75900;SDS011;64577;50.594;5.570;2022-11-20T06:55:26;8.65;;;5.40;;
75900;SDS011;64577;50.594;5.570;2022-11-20T06:57:51;10.27;;;5.70;;
75900;SDS011;64577;50.594;5.570;2022-11-20T07:00:17;8.70;;;5.18;;
75900;SDS011;64577;50.594;5.570;2022-11-20T07:02:42;10.02;;;5.35;;
75900;SDS011;64577;50.594;5.570;2022-11-20T07:05:07;9.07;;;5.43;;
75900;SDS011;64577;50.594;5.570;2022-11-20T07:07:33;9.35;;;6.25;;
75900;SDS011;64577;50.594;5.570;2022-11-20T07:09:58;10.00;;;6.03;;
75900;SDS011;64577;50.594;5.570;2022-11-20T07:12:23;10.05;;;6.03;;
75900;SDS011;64577;50.594;5.570;2022-11-20T07:14:49;9.73;;;6.18;;
75900;SDS011;64577;50.594;5.570;2022-11-20T07:17:14;10.52;;;6.05;;
75900;SDS011;64577;50.594;5.570;2022-11-20T07:19:40;11.75;;;6.65;;
75900;SDS011;64577;50.594;5.570;2022-11-20T07:22:05;10.15;;;6.35;;
75900;SDS011;64577;50.594;5.570;2022-11-20T07:24:30;10.48;;;6.95;;
75900;SDS011;64577;50.594;5.570;2022-11-20T07:26:56;10.90;;;6.70;;
75900;SDS011;64577;50.594;5.570;2022-11-20T07:29:21;10.13;;;6.57;;
75900;SDS011;64577;50.594;5.570;2022-11-20T07:31:46;11.25;;;6.40;;
75900;SDS011;64577;50.594;5.570;2022-11-20T07:34:12;10.07;;;6.20;;
75900;SDS011;64577;50.594;5.570;2022-11-20T07:36:37;10.93;;;6.38;;
75900;SDS011;64577;50.594;5.570;2022-11-20T07:39:02;11.48;;;6.35;;
75900;SDS011;64577;50.594;5.570;2022-11-20T07:41:28;11.40;;;6.30;;
75900;SDS011;64577;50.594;5.570;2022-11-20T07:43:54;11.15;;;6.22;;
75900;SDS011;64577;50.594;5.570;2022-11-20T07:46:19;10.00;;;6.30;;
75900;SDS011;64577;50.594;5.570;2022-11-20T07:48:44;10.20;;;6.43;;
75900;SDS011;64577;50.594;5.570;2022-11-20T07:51:10;11.43;;;6.60;;
75900;SDS011;64577;50.594;5.570;2022-11-20T07:53:35;11.48;;;6.40;;
75900;SDS011;64577;50.594;5.570;2022-11-20T07:56:01;11.20;;;6.13;;
75900;SDS011;64577;50.594;5.570;2022-11-20T07:58:28;10.68;;;6.82;;
75900;SDS011;64577;50.594;5.570;2022-11-20T08:00:54;10.82;;;6.50;;
75900;SDS011;64577;50.594;5.570;2022-11-20T08:03:20;8.77;;;6.07;;
75900;SDS011;64577;50.594;5.570;2022-11-20T08:05:45;10.88;;;6.35;;
75900;SDS011;64577;50.594;5.570;2022-11-20T08:08:10;11.02;;;6.80;;
75900;SDS011;64577;50.594;5.570;2022-11-20T08:10:36;11.10;;;6.38;;
75900;SDS011;64577;50.594;5.570;2022-11-20T08:13:01;9.77;;;6.28;;
75900;SDS011;64577;50.594;5.570;2022-11-20T08:15:47;11.60;;;6.47;;
75900;SDS011;64577;50.594;5.570;2022-11-20T08:18:15;16.63;;;6.53;;
75900;SDS011;64577;50.594;5.570;2022-11-20T08:20:42;11.23;;;6.25;;
75900;SDS011;64577;50.594;5.570;2022-11-20T08:23:07;11.43;;;5.93;;
75900;SDS011;64577;50.594;5.570;2022-11-20T08:25:33;14.73;;;7.57;;
75900;SDS011;64577;50.594;5.570;2022-11-20T08:28:01;12.40;;;6.65;;
75900;SDS011;64577;50.594;5.570;2022-11-20T08:30:28;14.23;;;6.70;;
75900;SDS011;64577;50.594;5.570;2022-11-20T08:32:53;12.68;;;7.03;;
75900;SDS011;64577;50.594;5.570;2022-11-20T08:35:20;10.77;;;6.50;;
75900;SDS011;64577;50.594;5.570;2022-11-20T08:37:46;15.63;;;7.38;;
75900;SDS011;64577;50.594;5.570;2022-11-20T08:40:12;14.45;;;8.65;;
75900;SDS011;64577;50.594;5.570;2022-11-20T08:42:45;12.85;;;7.72;;
75900;SDS011;64577;50.594;5.570;2022-11-20T08:45:11;14.07;;;7.13;;
75900;SDS011;64577;50.594;5.570;2022-11-20T08:47:36;11.38;;;6.95;;
75900;SDS011;64577;50.594;5.570;2022-11-20T08:50:01;20.48;;;6.65;;
75900;SDS011;64577;50.594;5.570;2022-11-20T08:52:27;13.55;;;6.80;;
75900;SDS011;64577;50.594;5.570;2022-11-20T08:54:53;18.92;;;6.90;;
75900;SDS011;64577;50.594;5.570;2022-11-20T08:57:18;14.55;;;7.18;;
75900;SDS011;64577;50.594;5.570;2022-11-20T08:59:43;18.40;;;7.30;;
75900;SDS011;64577;50.594;5.570;2022-11-20T09:02:09;17.13;;;7.18;;
75900;SDS011;64577;50.594;5.570;2022-11-20T09:04:34;14.70;;;7.15;;
75900;SDS011;64577;50.594;5.570;2022-11-20T09:07:00;28.80;;;7.90;;
75900;SDS011;64577;50.594;5.570;2022-11-20T09:09:25;16.83;;;6.55;;
75900;SDS011;64577;50.594;5.570;2022-11-20T09:11:50;16.02;;;7.45;;
75900;SDS011;64577;50.594;5.570;2022-11-20T09:14:16;11.38;;;6.20;;
75900;SDS011;64577;50.594;5.570;2022-11-20T09:16:41;10.98;;;6.93;;
75900;SDS011;64577;50.594;5.570;2022-11-20T09:19:06;11.32;;;6.68;;
75900;SDS011;64577;50.594;5.570;2022-11-20T09:21:32;11.57;;;6.63;;
75900;SDS011;64577;50.594;5.570;2022-11-20T09:23:57;15.40;;;6.45;;
75900;SDS011;64577;50.594;5.570;2022-11-20T09:26:22;11.43;;;6.40;;
75900;SDS011;64577;50.594;5.570;2022-11-20T09:28:48;17.55;;;6.63;;
75900;SDS011;64577;50.594;5.570;2022-11-20T09:31:21;9.98;;;6.22;;
75900;SDS011;64577;50.594;5.570;2022-11-20T09:33:48;11.10;;;6.13;;
75900;SDS011;64577;50.594;5.570;2022-11-20T09:36:13;9.43;;;6.13;;
75900;SDS011;64577;50.594;5.570;2022-11-20T09:38:39;10.98;;;6.18;;
75900;SDS011;64577;50.594;5.570;2022-11-20T09:41:05;10.55;;;6.38;;
75900;SDS011;64577;50.594;5.570;2022-11-20T09:43:42;11.48;;;5.93;;
75900;SDS011;64577;50.594;5.570;2022-11-20T09:46:17;10.60;;;5.90;;
75900;SDS011;64577;50.594;5.570;2022-11-20T09:50:02;15.60;;;6.00;;
75900;SDS011;64577;50.594;5.570;2022-11-20T09:52:48;17.17;;;6.22;;
75900;SDS011;64577;50.594;5.570;2022-11-20T09:54:52;13.25;;;6.60;;
75900;SDS011;64577;50.594;5.570;2022-11-20T09:57:29;16.77;;;6.63;;
75900;SDS011;64577;50.594;5.570;2022-11-20T10:00:00;12.73;;;5.90;;
75900;SDS011;64577;50.594;5.570;2022-11-20T10:02:35;13.77;;;6.25;;
75900;SDS011;64577;50.594;5.570;2022-11-20T10:08:07;12.93;;;6.50;;
75900;SDS011;64577;50.594;5.570;2022-11-20T10:10:35;13.18;;;6.55;;
75900;SDS011;64577;50.594;5.570;2022-11-20T10:13:45;11.05;;;5.70;;
75900;SDS011;64577;50.594;5.570;2022-11-20T10:22:12;11.77;;;6.22;;
75900;SDS011;64577;50.594;5.570;2022-11-20T10:25:00;14.27;;;6.13;;
75900;SDS011;64577;50.594;5.570;2022-11-20T10:30:14;10.20;;;6.30;;
75900;SDS011;64577;50.594;5.570;2022-11-20T10:32:52;13.52;;;6.75;;
75900;SDS011;64577;50.594;5.570;2022-11-20T10:37:55;12.23;;;6.93;;
75900;SDS011;64577;50.594;5.570;2022-11-20T10:40:31;11.10;;;6.60;;
75900;SDS011;64577;50.594;5.570;2022-11-20T10:43:33;12.15;;;6.55;;
75900;SDS011;64577;50.594;5.570;2022-11-20T10:48:33;10.82;;;5.75;;
75900;SDS011;64577;50.594;5.570;2022-11-20T10:51:01;10.88;;;5.93;;
75900;SDS011;64577;50.594;5.570;2022-11-20T10:56:07;12.10;;;5.80;;
75900;SDS011;64577;50.594;5.570;2022-11-20T11:01:41;11.88;;;5.57;;
75900;SDS011;64577;50.594;5.570;2022-11-20T11:04:15;11.13;;;5.65;;
75900;SDS011;64577;50.594;5.570;2022-11-20T11:06:53;8.95;;;5.13;;
75900;SDS011;64577;50.594;5.570;2022-11-20T11:09:24;13.40;;;5.70;;
75900;SDS011;64577;50.594;5.570;2022-11-20T11:11:58;11.25;;;5.65;;
75900;SDS011;64577;50.594;5.570;2022-11-20T11:14:23;10.57;;;5.57;;
75900;SDS011;64577;50.594;5.570;2022-11-20T11:19:21;10.57;;;5.50;;
75900;SDS011;64577;50.594;5.570;2022-11-20T11:21:48;16.50;;;5.85;;
75900;SDS011;64577;50.594;5.570;2022-11-20T11:24:34;12.48;;;5.38;;
75900;SDS011;64577;50.594;5.570;2022-11-20T11:27:00;14.57;;;5.80;;
75900;SDS011;64577;50.594;5.570;2022-11-20T11:29:32;14.25;;;5.47;;
75900;SDS011;64577;50.594;5.570;2022-11-20T11:32:03;12.07;;;4.90;;
75900;SDS011;64577;50.594;5.570;2022-11-20T11:34:33;11.65;;;4.95;;
75900;SDS011;64577;50.594;5.570;2022-11-20T11:36:59;14.32;;;4.75;;
75900;SDS011;64577;50.594;5.570;2022-11-20T11:39:28;10.30;;;4.72;;
75900;SDS011;64577;50.594;5.570;2022-11-20T11:41:55;12.07;;;4.80;;
75900;SDS011;64577;50.594;5.570;2022-11-20T11:46:51;11.63;;;4.10;;
75900;SDS011;64577;50.594;5.570;2022-11-20T11:49:19;11.77;;;4.10;;
75900;SDS011;64577;50.594;5.570;2022-11-20T11:54:45;10.93;;;3.80;;
75900;SDS011;64577;50.594;5.570;2022-11-20T11:57:37;8.75;;;3.10;;
75900;SDS011;64577;50.594;5.570;2022-11-20T12:00:11;9.38;;;3.03;;
75900;SDS011;64577;50.594;5.570;2022-11-20T12:07:47;8.55;;;2.90;;
75900;SDS011;64577;50.594;5.570;2022-11-20T12:15:58;7.38;;;3.08;;
75900;SDS011;64577;50.594;5.570;2022-11-20T12:18:24;9.00;;;3.05;;
75900;SDS011;64577;50.594;5.570;2022-11-20T12:20:56;8.68;;;2.92;;
75900;SDS011;64577;50.594;5.570;2022-11-20T12:23:28;6.40;;;2.90;;
75900;SDS011;64577;50.594;5.570;2022-11-20T12:26:10;9.65;;;3.13;;
75900;SDS011;64577;50.594;5.570;2022-11-20T12:28:53;6.93;;;2.67;;
75900;SDS011;64577;50.594;5.570;2022-11-20T12:31:48;6.05;;;2.38;;
75900;SDS011;64577;50.594;5.570;2022-11-20T12:35:20;13.30;;;2.70;;
75900;SDS011;64577;50.594;5.570;2022-11-20T12:37:53;6.28;;;2.28;;
75900;SDS011;64577;50.594;5.570;2022-11-20T12:43:21;9.70;;;2.88;;
75900;SDS011;64577;50.594;5.570;2022-11-20T12:56:46;8.80;;;1.90;;
75900;SDS011;64577;50.594;5.570;2022-11-20T13:04:57;6.28;;;1.83;;
75900;SDS011;64577;50.594;5.570;2022-11-20T13:07:34;11.00;;;2.30;;
75900;SDS011;64577;50.594;5.570;2022-11-20T13:10:00;12.00;;;1.70;;
75900;SDS011;64577;50.594;5.570;2022-11-20T13:12:33;10.23;;;1.75;;
75900;SDS011;64577;50.594;5.570;2022-11-20T13:20:19;8.07;;;1.75;;
75900;SDS011;64577;50.594;5.570;2022-11-20T13:22:48;12.23;;;1.85;;
75900;SDS011;64577;50.594;5.570;2022-11-20T13:27:53;13.77;;;2.60;;
75900;SDS011;64577;50.594;5.570;2022-11-20T13:30:20;7.43;;;1.67;;
75900;SDS011;64577;50.594;5.570;2022-11-20T13:38:04;6.82;;;1.55;;
75900;SDS011;64577;50.594;5.570;2022-11-20T13:40:59;15.52;;;2.60;;
75900;SDS011;64577;50.594;5.570;2022-11-20T13:43:46;13.60;;;2.58;;
75900;SDS011;64577;50.594;5.570;2022-11-20T13:46:12;8.18;;;1.63;;
75900;SDS011;64577;50.594;5.570;2022-11-20T13:48:39;11.38;;;1.60;;
75900;SDS011;64577;50.594;5.570;2022-11-20T13:51:15;9.60;;;1.80;;
75900;SDS011;64577;50.594;5.570;2022-11-20T14:01:58;7.95;;;1.50;;
75900;SDS011;64577;50.594;5.570;2022-11-20T14:04:26;6.70;;;1.38;;
75900;SDS011;64577;50.594;5.570;2022-11-20T14:06:55;9.38;;;1.15;;
75900;SDS011;64577;50.594;5.570;2022-11-20T14:09:28;9.15;;;1.67;;
75900;SDS011;64577;50.594;5.570;2022-11-20T14:11:56;4.47;;;1.25;;
75900;SDS011;64577;50.594;5.570;2022-11-20T14:14:23;6.97;;;1.23;;
75900;SDS011;64577;50.594;5.570;2022-11-20T14:19:50;11.93;;;1.67;;
75900;SDS011;64577;50.594;5.570;2022-11-20T14:22:27;6.95;;;1.45;;
75900;SDS011;64577;50.594;5.570;2022-11-20T14:27:36;5.22;;;1.38;;
75900;SDS011;64577;50.594;5.570;2022-11-20T14:30:03;3.58;;;1.20;;
75900;SDS011;64577;50.594;5.570;2022-11-20T14:32:30;8.02;;;1.50;;
75900;SDS011;64577;50.594;5.570;2022-11-20T14:34:57;5.97;;;1.40;;
75900;SDS011;64577;50.594;5.570;2022-11-20T14:37:33;5.35;;;1.42;;
75900;SDS011;64577;50.594;5.570;2022-11-20T14:40:02;5.72;;;1.50;;
75900;SDS011;64577;50.594;5.570;2022-11-20T14:42:30;5.60;;;1.63;;
75900;SDS011;64577;50.594;5.570;2022-11-20T14:44:56;6.10;;;1.60;;
75900;SDS011;64577;50.594;5.570;2022-11-20T14:47:25;6.80;;;1.60;;
75900;SDS011;64577;50.594;5.570;2022-11-20T14:49:52;7.72;;;1.77;;
75900;SDS011;64577;50.594;5.570;2022-11-20T14:52:20;8.23;;;1.90;;
75900;SDS011;64577;50.594;5.570;2022-11-20T14:54:54;8.23;;;1.73;;
75900;SDS011;64577;50.594;5.570;2022-11-20T15:00:04;7.35;;;1.58;;
75900;SDS011;64577;50.594;5.570;2022-11-20T15:02:31;6.25;;;1.50;;
75900;SDS011;64577;50.594;5.570;2022-11-20T15:04:57;4.55;;;1.40;;
75900;SDS011;64577;50.594;5.570;2022-11-20T15:07:25;12.07;;;1.90;;
75900;SDS011;64577;50.594;5.570;2022-11-20T15:12:50;8.55;;;2.08;;
75900;SDS011;64577;50.594;5.570;2022-11-20T15:15:17;5.85;;;1.60;;
75900;SDS011;64577;50.594;5.570;2022-11-20T15:17:48;8.82;;;1.60;;
75900;SDS011;64577;50.594;5.570;2022-11-20T15:20:14;5.40;;;1.48;;
75900;SDS011;64577;50.594;5.570;2022-11-20T15:22:41;13.40;;;1.95;;
75900;SDS011;64577;50.594;5.570;2022-11-20T15:25:13;6.32;;;1.75;;
75900;SDS011;64577;50.594;5.570;2022-11-20T15:27:41;6.70;;;1.65;;
75900;SDS011;64577;50.594;5.570;2022-11-20T15:30:14;12.77;;;1.90;;
75900;SDS011;64577;50.594;5.570;2022-11-20T15:32:41;9.20;;;2.10;;
75900;SDS011;64577;50.594;5.570;2022-11-20T15:35:07;15.13;;;1.77;;
75900;SDS011;64577;50.594;5.570;2022-11-20T15:37:33;10.88;;;1.63;;
75900;SDS011;64577;50.594;5.570;2022-11-20T15:39:59;9.15;;;1.50;;
75900;SDS011;64577;50.594;5.570;2022-11-20T15:42:24;10.25;;;1.55;;
75900;SDS011;64577;50.594;5.570;2022-11-20T15:44:49;8.82;;;1.50;;
75900;SDS011;64577;50.594;5.570;2022-11-20T15:47:15;4.53;;;1.25;;
75900;SDS011;64577;50.594;5.570;2022-11-20T15:49:42;4.45;;;1.30;;
75900;SDS011;64577;50.594;5.570;2022-11-20T15:52:08;11.63;;;1.60;;
75900;SDS011;64577;50.594;5.570;2022-11-20T15:54:34;5.53;;;1.23;;
75900;SDS011;64577;50.594;5.570;2022-11-20T15:57:00;8.55;;;1.50;;
75900;SDS011;64577;50.594;5.570;2022-11-20T15:59:27;6.53;;;1.30;;
75900;SDS011;64577;50.594;5.570;2022-11-20T16:01:52;5.03;;;1.40;;
75900;SDS011;64577;50.594;5.570;2022-11-20T16:04:17;5.32;;;1.13;;
75900;SDS011;64577;50.594;5.570;2022-11-20T16:06:43;5.70;;;1.25;;
75900;SDS011;64577;50.594;5.570;2022-11-20T16:09:08;4.65;;;1.10;;
75900;SDS011;64577;50.594;5.570;2022-11-20T16:11:34;4.40;;;0.90;;
75900;SDS011;64577;50.594;5.570;2022-11-20T16:14:01;4.88;;;1.05;;
75900;SDS011;64577;50.594;5.570;2022-11-20T16:16:46;4.55;;;1.30;;
75900;SDS011;64577;50.594;5.570;2022-11-20T16:19:11;7.68;;;1.15;;
75900;SDS011;64577;50.594;5.570;2022-11-20T16:21:37;7.18;;;1.73;;
75900;SDS011;64577;50.594;5.570;2022-11-20T16:24:05;6.88;;;1.20;;
75900;SDS011;64577;50.594;5.570;2022-11-20T16:26:31;3.20;;;0.98;;
75900;SDS011;64577;50.594;5.570;2022-11-20T16:29:00;4.78;;;1.10;;
75900;SDS011;64577;50.594;5.570;2022-11-20T16:31:27;4.60;;;1.13;;
75900;SDS011;64577;50.594;5.570;2022-11-20T16:33:54;4.88;;;1.20;;
75900;SDS011;64577;50.594;5.570;2022-11-20T16:36:21;6.18;;;0.90;;
75900;SDS011;64577;50.594;5.570;2022-11-20T16:38:54;4.07;;;1.05;;
75900;SDS011;64577;50.594;5.570;2022-11-20T16:41:22;3.70;;;1.00;;
75900;SDS011;64577;50.594;5.570;2022-11-20T16:43:52;2.50;;;0.80;;
75900;SDS011;64577;50.594;5.570;2022-11-20T16:46:19;3.70;;;1.10;;
75900;SDS011;64577;50.594;5.570;2022-11-20T16:48:53;4.00;;;1.02;;
75900;SDS011;64577;50.594;5.570;2022-11-20T16:51:23;13.40;;;2.38;;
75900;SDS011;64577;50.594;5.570;2022-11-20T16:53:49;3.60;;;1.00;;
75900;SDS011;64577;50.594;5.570;2022-11-20T16:56:20;5.53;;;1.23;;
75900;SDS011;64577;50.594;5.570;2022-11-20T16:58:47;7.05;;;1.20;;
75900;SDS011;64577;50.594;5.570;2022-11-20T17:01:14;9.38;;;1.20;;
75900;SDS011;64577;50.594;5.570;2022-11-20T17:03:42;6.78;;;1.10;;
75900;SDS011;64577;50.594;5.570;2022-11-20T17:06:11;4.75;;;1.20;;
75900;SDS011;64577;50.594;5.570;2022-11-20T17:08:37;6.80;;;1.30;;
75900;SDS011;64577;50.594;5.570;2022-11-20T17:11:03;6.65;;;1.60;;
75900;SDS011;64577;50.594;5.570;2022-11-20T17:13:32;7.65;;;1.40;;
75900;SDS011;64577;50.594;5.570;2022-11-20T17:16:06;6.70;;;1.10;;
75900;SDS011;64577;50.594;5.570;2022-11-20T17:18:33;4.40;;;1.35;;
75900;SDS011;64577;50.594;5.570;2022-11-20T17:20:59;3.72;;;1.02;;
75900;SDS011;64577;50.594;5.570;2022-11-20T17:23:29;4.53;;;1.27;;
75900;SDS011;64577;50.594;5.570;2022-11-20T17:26:05;6.00;;;1.15;;
75900;SDS011;64577;50.594;5.570;2022-11-20T17:28:32;8.95;;;1.20;;
75900;SDS011;64577;50.594;5.570;2022-11-20T17:31:01;3.80;;;1.10;;
75900;SDS011;64577;50.594;5.570;2022-11-20T17:33:28;6.68;;;1.35;;
75900;SDS011;64577;50.594;5.570;2022-11-20T17:35:54;5.93;;;1.30;;
75900;SDS011;64577;50.594;5.570;2022-11-20T17:38:19;6.10;;;1.30;;
75900;SDS011;64577;50.594;5.570;2022-11-20T17:40:45;3.92;;;1.27;;
75900;SDS011;64577;50.594;5.570;2022-11-20T17:43:10;3.67;;;1.27;;
75900;SDS011;64577;50.594;5.570;2022-11-20T17:45:35;6.30;;;1.42;;
75900;SDS011;64577;50.594;5.570;2022-11-20T17:48:01;5.85;;;1.20;;
75900;SDS011;64577;50.594;5.570;2022-11-20T17:50:26;4.63;;;1.60;;
75900;SDS011;64577;50.594;5.570;2022-11-20T17:52:52;7.60;;;1.77;;
75900;SDS011;64577;50.594;5.570;2022-11-20T17:55:17;4.25;;;1.30;;
75900;SDS011;64577;50.594;5.570;2022-11-20T17:57:42;3.30;;;1.27;;
75900;SDS011;64577;50.594;5.570;2022-11-20T18:00:16;5.60;;;1.50;;
75900;SDS011;64577;50.594;5.570;2022-11-20T18:02:42;4.30;;;1.35;;
75900;SDS011;64577;50.594;5.570;2022-11-20T18:05:08;5.32;;;1.55;;
75900;SDS011;64577;50.594;5.570;2022-11-20T18:07:33;8.07;;;1.77;;
75900;SDS011;64577;50.594;5.570;2022-11-20T18:09:59;5.93;;;1.40;;
75900;SDS011;64577;50.594;5.570;2022-11-20T18:12:25;6.05;;;1.73;;
75900;SDS011;64577;50.594;5.570;2022-11-20T18:14:50;5.38;;;1.50;;
75900;SDS011;64577;50.594;5.570;2022-11-20T18:17:15;10.30;;;2.00;;
75900;SDS011;64577;50.594;5.570;2022-11-20T18:19:42;7.65;;;1.80;;
75900;SDS011;64577;50.594;5.570;2022-11-20T18:22:09;6.57;;;1.58;;
75900;SDS011;64577;50.594;5.570;2022-11-20T18:24:35;8.50;;;1.90;;
75900;SDS011;64577;50.594;5.570;2022-11-20T18:27:03;13.43;;;2.10;;
75900;SDS011;64577;50.594;5.570;2022-11-20T18:29:30;9.88;;;2.05;;
75900;SDS011;64577;50.594;5.570;2022-11-20T18:31:56;7.47;;;1.80;;
75900;SDS011;64577;50.594;5.570;2022-11-20T18:34:22;15.10;;;1.95;;
75900;SDS011;64577;50.594;5.570;2022-11-20T18:36:47;10.55;;;1.92;;
75900;SDS011;64577;50.594;5.570;2022-11-20T18:39:13;11.63;;;2.17;;
75900;SDS011;64577;50.594;5.570;2022-11-20T18:41:39;12.15;;;3.55;;
75900;SDS011;64577;50.594;5.570;2022-11-20T18:44:25;8.75;;;2.65;;
75900;SDS011;64577;50.594;5.570;2022-11-20T18:47:11;9.20;;;2.13;;
75900;SDS011;64577;50.594;5.570;2022-11-20T18:49:38;11.75;;;2.25;;
75900;SDS011;64577;50.594;5.570;2022-11-20T18:52:03;9.55;;;2.55;;
75900;SDS011;64577;50.594;5.570;2022-11-20T18:54:29;12.15;;;1.98;;
75900;SDS011;64577;50.594;5.570;2022-11-20T18:56:55;9.50;;;1.85;;
75900;SDS011;64577;50.594;5.570;2022-11-20T18:59:20;8.05;;;1.95;;
75900;SDS011;64577;50.594;5.570;2022-11-20T19:01:46;9.63;;;1.90;;
75900;SDS011;64577;50.594;5.570;2022-11-20T19:04:12;4.53;;;1.55;;
75900;SDS011;64577;50.594;5.570;2022-11-20T19:06:39;7.25;;;1.77;;
75900;SDS011;64577;50.594;5.570;2022-11-20T19:09:07;5.28;;;1.40;;
75900;SDS011;64577;50.594;5.570;2022-11-20T19:11:34;9.77;;;1.80;;
75900;SDS011;64577;50.594;5.570;2022-11-20T19:14:01;5.90;;;1.75;;
75900;SDS011;64577;50.594;5.570;2022-11-20T19:16:26;4.47;;;1.40;;
75900;SDS011;64577;50.594;5.570;2022-11-20T19:18:52;5.18;;;1.40;;
75900;SDS011;64577;50.594;5.570;2022-11-20T19:21:22;8.30;;;1.60;;
75900;SDS011;64577;50.594;5.570;2022-11-20T19:23:49;4.82;;;1.38;;
75900;SDS011;64577;50.594;5.570;2022-11-20T19:26:16;7.38;;;1.67;;
75900;SDS011;64577;50.594;5.570;2022-11-20T19:28:42;8.27;;;1.80;;
75900;SDS011;64577;50.594;5.570;2022-11-20T19:31:08;6.10;;;1.40;;
75900;SDS011;64577;50.594;5.570;2022-11-20T19:33:36;10.27;;;1.42;;
75900;SDS011;64577;50.594;5.570;2022-11-20T19:38:36;9.48;;;1.33;;
75900;SDS011;64577;50.594;5.570;2022-11-20T19:41:03;10.48;;;1.85;;
75900;SDS011;64577;50.594;5.570;2022-11-20T19:43:29;7.82;;;1.20;;
75900;SDS011;64577;50.594;5.570;2022-11-20T19:45:55;8.20;;;1.50;;
75900;SDS011;64577;50.594;5.570;2022-11-20T19:48:20;4.90;;;1.40;;
75900;SDS011;64577;50.594;5.570;2022-11-20T19:50:46;11.48;;;1.90;;
75900;SDS011;64577;50.594;5.570;2022-11-20T19:53:11;7.43;;;1.45;;
75900;SDS011;64577;50.594;5.570;2022-11-20T19:55:37;5.70;;;1.30;;
75900;SDS011;64577;50.594;5.570;2022-11-20T19:58:03;4.20;;;1.55;;
75900;SDS011;64577;50.594;5.570;2022-11-20T20:00:28;7.25;;;1.23;;
75900;SDS011;64577;50.594;5.570;2022-11-20T20:02:55;7.47;;;1.45;;
75900;SDS011;64577;50.594;5.570;2022-11-20T20:05:20;12.63;;;1.77;;
75900;SDS011;64577;50.594;5.570;2022-11-20T20:07:45;8.07;;;1.25;;
75900;SDS011;64577;50.594;5.570;2022-11-20T20:10:11;10.70;;;1.50;;
75900;SDS011;64577;50.594;5.570;2022-11-20T20:12:37;7.25;;;1.73;;
75900;SDS011;64577;50.594;5.570;2022-11-20T20:15:03;4.32;;;1.40;;
75900;SDS011;64577;50.594;5.570;2022-11-20T20:17:29;7.10;;;1.40;;
75900;SDS011;64577;50.594;5.570;2022-11-20T20:19:54;6.68;;;1.42;;
75900;SDS011;64577;50.594;5.570;2022-11-20T20:22:20;5.30;;;1.30;;
75900;SDS011;64577;50.594;5.570;2022-11-20T20:24:45;4.90;;;1.60;;
75900;SDS011;64577;50.594;5.570;2022-11-20T20:27:10;4.03;;;1.30;;
75900;SDS011;64577;50.594;5.570;2022-11-20T20:29:36;6.30;;;1.52;;
75900;SDS011;64577;50.594;5.570;2022-11-20T20:32:01;6.65;;;1.67;;
75900;SDS011;64577;50.594;5.570;2022-11-20T20:34:26;5.10;;;1.52;;
75900;SDS011;64577;50.594;5.570;2022-11-20T20:36:53;4.70;;;1.50;;
75900;SDS011;64577;50.594;5.570;2022-11-20T20:39:19;6.40;;;1.80;;
75900;SDS011;64577;50.594;5.570;2022-11-20T20:41:45;9.15;;;1.83;;
75900;SDS011;64577;50.594;5.570;2022-11-20T20:44:10;6.45;;;2.00;;
75900;SDS011;64577;50.594;5.570;2022-11-20T20:46:54;6.80;;;1.60;;
75900;SDS011;64577;50.594;5.570;2022-11-20T20:49:19;7.35;;;1.50;;
75900;SDS011;64577;50.594;5.570;2022-11-20T20:51:45;5.68;;;1.92;;
75900;SDS011;64577;50.594;5.570;2022-11-20T20:54:10;5.20;;;1.85;;
75900;SDS011;64577;50.594;5.570;2022-11-20T20:56:36;5.03;;;1.75;;
75900;SDS011;64577;50.594;5.570;2022-11-20T20:59:02;7.25;;;2.10;;
75900;SDS011;64577;50.594;5.570;2022-11-20T21:01:27;8.27;;;2.03;;
75900;SDS011;64577;50.594;5.570;2022-11-20T21:03:53;5.75;;;1.63;;
75900;SDS011;64577;50.594;5.570;2022-11-20T21:06:19;6.40;;;1.85;;
75900;SDS011;64577;50.594;5.570;2022-11-20T21:08:44;7.35;;;2.08;;
75900;SDS011;64577;50.594;5.570;2022-11-20T21:11:11;6.25;;;2.03;;
75900;SDS011;64577;50.594;5.570;2022-11-20T21:13:38;8.00;;;2.08;;
75900;SDS011;64577;50.594;5.570;2022-11-20T21:16:05;7.10;;;2.08;;
75900;SDS011;64577;50.594;5.570;2022-11-20T21:18:31;6.05;;;1.98;;
75900;SDS011;64577;50.594;5.570;2022-11-20T21:20:57;6.15;;;1.88;;
75900;SDS011;64577;50.594;5.570;2022-11-20T21:23:43;6.45;;;1.98;;
75900;SDS011;64577;50.594;5.570;2022-11-20T21:26:10;7.03;;;2.13;;
75900;SDS011;64577;50.594;5.570;2022-11-20T21:28:35;6.72;;;2.22;;
75900;SDS011;64577;50.594;5.570;2022-11-20T21:31:20;7.28;;;2.10;;
75900;SDS011;64577;50.594;5.570;2022-11-20T21:33:47;8.73;;;1.95;;
75900;SDS011;64577;50.594;5.570;2022-11-20T21:36:16;8.23;;;2.38;;
75900;SDS011;64577;50.594;5.570;2022-11-20T21:38:43;8.52;;;2.00;;
75900;SDS011;64577;50.594;5.570;2022-11-20T21:41:10;5.60;;;2.08;;
75900;SDS011;64577;50.594;5.570;2022-11-20T21:43:36;6.90;;;2.10;;
75900;SDS011;64577;50.594;5.570;2022-11-20T21:46:03;8.93;;;2.45;;
75900;SDS011;64577;50.594;5.570;2022-11-20T21:48:39;7.22;;;2.22;;
75900;SDS011;64577;50.594;5.570;2022-11-20T21:51:07;6.95;;;2.17;;